createdAt,value
2018-04-20T00:01:08.095Z,80.50
2018-04-20T00:03:36.348Z,81.60
2018-04-20T00:06:04.594Z,78.73
2018-04-20T00:08:33.608Z,79.97
2018-04-20T00:11:02.631Z,81.00
2018-04-20T00:13:30.892Z,81.28
2018-04-20T00:15:59.145Z,81.54
2018-04-20T00:18:27.398Z,82.11
2018-04-20T00:20:55.665Z,82.44
2018-04-20T00:23:23.902Z,82.83
2018-04-20T00:25:52.168Z,82.95
2018-04-20T00:28:20.408Z,82.62
2018-04-20T00:30:48.659Z,82.99
2018-04-20T00:33:16.903Z,83.61
2018-04-20T00:35:45.171Z,82.69
2018-04-20T00:38:13.415Z,83.26
2018-04-20T00:40:41.667Z,83.93
2018-04-20T00:43:10.689Z,84.66
2018-04-20T00:45:38.935Z,83.90
2018-04-20T00:48:07.966Z,83.62
2018-04-20T00:50:36.763Z,84.17
2018-04-20T00:53:05.017Z,83.71
2018-04-20T00:55:34.932Z,84.00
2018-04-20T00:58:03.959Z,83.04
2018-04-20T01:00:32.200Z,83.23
2018-04-20T01:03:01.271Z,82.46
2018-04-20T01:05:29.463Z,84.05
2018-04-20T01:07:57.719Z,83.99
2018-04-20T01:10:25.961Z,84.02
2018-04-20T01:12:54.221Z,83.18
2018-04-20T01:15:23.222Z,84.17
2018-04-20T01:17:52.269Z,84.58
2018-04-20T01:20:20.496Z,85.25
2018-04-20T01:22:49.512Z,85.04
2018-04-20T01:25:17.753Z,85.17
2018-04-20T01:27:46.015Z,84.82
2018-04-20T01:30:14.252Z,85.29
2018-04-20T01:32:42.506Z,86.25
2018-04-20T01:35:11.518Z,85.93
2018-04-20T01:37:41.250Z,85.95
2018-04-20T01:40:09.536Z,86.18
2018-04-20T01:42:38.859Z,85.56
2018-04-20T01:45:07.105Z,85.29
2018-04-20T01:47:35.351Z,86.24
2018-04-20T01:50:03.598Z,86.43
2018-04-20T01:52:31.862Z,86.22
2018-04-20T01:55:00.108Z,85.39
2018-04-20T01:57:29.127Z,85.84
2018-04-20T01:59:57.367Z,85.67
2018-04-20T02:02:25.618Z,84.95
2018-04-20T02:04:53.862Z,84.75
2018-04-20T02:07:22.126Z,84.80
2018-04-20T02:09:51.144Z,84.38
2018-04-20T02:12:19.403Z,85.20
2018-04-20T02:14:48.411Z,85.87
2018-04-20T02:17:17.426Z,84.72
2018-04-20T02:19:46.295Z,85.37
2018-04-20T02:22:15.323Z,86.96
2018-04-20T02:24:43.584Z,85.79
2018-04-20T02:27:12.606Z,85.24
2018-04-20T02:29:40.852Z,86.77
2018-04-20T02:32:09.867Z,86.76
2018-04-20T02:34:38.119Z,86.98
2018-04-20T02:37:07.148Z,87.22
2018-04-20T02:39:35.391Z,87.07
2018-04-20T02:42:03.709Z,85.50
2018-04-20T02:44:31.988Z,87.39
2018-04-20T02:47:00.989Z,87.86
2018-04-20T02:49:29.248Z,87.06
2018-04-20T02:51:58.251Z,86.23
2018-04-20T02:54:27.275Z,86.39
2018-04-20T02:56:55.532Z,86.99
2018-04-20T02:59:24.555Z,87.81
2018-04-20T03:01:52.796Z,86.59
2018-04-20T03:04:21.815Z,86.90
2018-04-20T03:06:50.841Z,86.86
2018-04-20T03:09:19.095Z,86.73
2018-04-20T03:11:47.355Z,87.36
2018-04-20T03:14:16.375Z,87.68
2018-04-20T03:16:44.639Z,87.92
2018-04-20T03:19:13.658Z,87.83
2018-04-20T03:21:41.908Z,87.63
2018-04-20T03:24:10.162Z,87.71
2018-04-20T03:26:38.403Z,87.44
2018-04-20T03:29:06.659Z,86.54
2018-04-20T03:31:35.668Z,87.14
2018-04-20T03:34:03.927Z,88.21
2018-04-20T03:36:32.938Z,88.43
2018-04-20T03:39:01.958Z,87.79
2018-04-20T03:41:30.199Z,88.41
2018-04-20T03:43:59.235Z,87.82
2018-04-20T03:46:27.491Z,87.86
2018-04-20T03:48:56.596Z,87.86
2018-04-20T03:51:24.852Z,88.13
2018-04-20T03:53:53.120Z,86.71
2018-04-20T03:56:21.395Z,86.07
2018-04-20T03:58:49.634Z,87.17
2018-04-20T04:01:17.884Z,87.59
2018-04-20T04:03:46.927Z,87.84
2018-04-20T04:06:15.189Z,87.85
2018-04-20T04:08:43.743Z,87.82
2018-04-20T04:11:12.768Z,88.13
2018-04-20T04:13:41.018Z,88.29
2018-04-20T04:16:09.324Z,87.26
2018-04-20T04:18:55.392Z,87.50
2018-04-20T04:21:36.925Z,87.77
2018-04-20T04:24:23.051Z,88.13
2018-04-20T04:27:10.698Z,87.10
2018-04-20T04:29:40.957Z,87.08
2018-04-20T04:32:09.191Z,86.99
2018-04-20T04:34:38.213Z,86.25
2018-04-20T04:37:06.450Z,86.57
2018-04-20T04:39:34.704Z,86.07
2018-04-20T04:42:02.952Z,86.83
2018-04-20T04:44:31.220Z,86.44
2018-04-20T04:47:00.258Z,86.87
2018-04-20T04:49:28.501Z,86.79
2018-04-20T04:51:57.507Z,85.66
2018-04-20T04:54:25.769Z,86.04
2018-04-20T04:56:54.773Z,86.38
2018-04-20T04:59:23.790Z,85.93
2018-04-20T05:01:52.026Z,85.56
2018-04-20T05:04:20.302Z,85.91
2018-04-20T05:06:48.543Z,84.34
2018-04-20T05:09:16.793Z,84.29
2018-04-20T05:11:47.087Z,84.63
2018-04-20T05:14:15.340Z,83.75
2018-04-20T05:16:43.579Z,82.66
2018-04-20T05:19:12.603Z,83.16
2018-04-20T05:21:40.858Z,82.92
2018-04-20T05:24:09.863Z,82.36
2018-04-20T05:26:38.126Z,80.97
2018-04-20T05:29:07.130Z,70.06
2018-04-20T05:31:36.155Z,52.81
2018-04-20T05:34:04.397Z,41.60
2018-04-20T05:36:33.427Z,39.17
2018-04-20T05:39:01.675Z,36.39
2018-04-20T05:41:30.712Z,32.46
2018-04-20T05:43:58.963Z,33.85
2018-04-20T05:46:27.991Z,31.60
2018-04-20T05:48:56.243Z,30.33
2018-04-20T05:51:25.305Z,28.45
2018-04-20T05:53:54.042Z,28.50
2018-04-20T05:56:22.316Z,27.21
2018-04-20T05:58:51.336Z,26.59
2018-04-20T06:01:20.594Z,25.87
2018-04-20T06:03:48.804Z,25.12
2018-04-20T06:06:17.035Z,25.47
2018-04-20T06:08:45.307Z,22.64
2018-04-20T06:11:13.576Z,21.58
2018-04-20T06:13:41.834Z,22.46
2018-04-20T06:16:10.100Z,20.67
2018-04-20T06:18:38.353Z,20.63
2018-04-20T06:21:06.619Z,20.41
2018-04-20T06:23:34.894Z,18.97
2018-04-20T06:26:03.159Z,18.21
2018-04-20T06:28:31.414Z,19.65
2018-04-20T06:30:59.683Z,18.07
2018-04-20T06:33:27.935Z,17.13
2018-04-20T06:35:56.199Z,19.25
2018-04-20T06:38:24.455Z,17.50
2018-04-20T06:40:52.723Z,18.87
2018-04-20T06:43:20.998Z,19.03
2018-04-20T06:45:49.260Z,18.43
2018-04-20T06:48:18.282Z,19.20
2018-04-20T06:50:46.555Z,18.50
2018-04-20T06:53:14.808Z,19.22
2018-04-20T06:55:43.845Z,18.88
2018-04-20T06:58:12.211Z,20.21
2018-04-20T07:00:40.471Z,17.82
2018-04-20T07:03:09.494Z,17.08
2018-04-20T07:05:39.086Z,17.64
2018-04-20T07:08:08.111Z,18.50
2018-04-20T07:10:36.383Z,18.20
2018-04-20T07:13:04.635Z,17.69
2018-04-20T07:15:33.676Z,16.55
2018-04-20T07:18:01.927Z,17.15
2018-04-20T07:20:30.192Z,16.08
2018-04-20T07:22:59.224Z,15.80
2018-04-20T07:25:27.484Z,15.54
2018-04-20T07:27:55.741Z,15.52
2018-04-20T07:30:24.771Z,15.28
2018-04-20T07:32:53.018Z,15.67
2018-04-20T07:35:21.336Z,16.47
2018-04-20T07:37:49.589Z,15.39
2018-04-20T07:40:18.724Z,14.61
2018-04-20T07:42:46.980Z,15.36
2018-04-20T07:45:16.004Z,14.85
2018-04-20T07:47:44.271Z,13.48
2018-04-20T07:50:12.540Z,10.93
2018-04-20T07:52:41.567Z,12.55
2018-04-20T07:55:09.819Z,12.39
2018-04-20T07:57:38.847Z,13.01
2018-04-20T08:00:07.100Z,13.26
2018-04-20T08:02:36.118Z,11.18
2018-04-20T08:05:04.382Z,10.53
2018-04-20T08:07:32.650Z,11.60
2018-04-20T08:10:01.663Z,12.84
2018-04-20T08:12:29.933Z,13.11
2018-04-20T08:14:58.950Z,11.09
2018-04-20T08:17:27.207Z,13.73
2018-04-20T08:19:56.224Z,14.67
2018-04-20T08:22:24.492Z,12.63
2018-04-20T08:24:53.507Z,14.84
2018-04-20T08:27:21.775Z,15.40
2018-04-20T08:29:50.051Z,14.97
2018-04-20T08:32:19.075Z,14.89
2018-04-20T08:34:47.332Z,12.46
2018-04-20T08:37:15.596Z,13.91
2018-04-20T08:39:44.619Z,13.94
2018-04-20T08:42:12.882Z,10.58
2018-04-20T08:44:41.907Z,12.67
2018-04-20T08:47:10.159Z,10.69
2018-04-20T08:49:39.179Z,13.88
2018-04-20T08:52:07.442Z,14.38
2018-04-20T08:54:36.473Z,13.11
2018-04-20T08:57:04.797Z,14.28
2018-04-20T08:59:32.993Z,13.00
2018-04-20T09:02:02.024Z,13.05
2018-04-20T09:04:30.282Z,11.83
2018-04-20T09:06:59.354Z,10.75
2018-04-20T09:09:27.666Z,10.80
2018-04-20T09:11:55.927Z,13.09
2018-04-20T09:14:24.958Z,14.28
2018-04-20T09:16:54.318Z,10.97
2018-04-20T09:19:22.597Z,10.68
2018-04-20T09:21:50.830Z,9.35
2018-04-20T09:24:19.101Z,10.75
2018-04-20T09:26:47.352Z,10.42
2018-04-20T09:29:16.387Z,11.42
2018-04-20T09:31:44.647Z,11.13
2018-04-20T09:34:12.920Z,13.77
2018-04-20T09:36:41.939Z,15.79
2018-04-20T09:39:10.195Z,12.52
2018-04-20T09:41:39.226Z,13.89
2018-04-20T09:44:07.492Z,11.32
2018-04-20T09:46:35.820Z,10.75
2018-04-20T09:49:04.084Z,8.93
2018-04-20T09:51:32.337Z,9.42
2018-04-20T09:54:00.603Z,11.49
2018-04-20T09:56:28.860Z,12.11
2018-04-20T09:58:57.119Z,9.78
2018-04-20T10:01:25.372Z,10.54
2018-04-20T10:03:57.580Z,10.90
2018-04-20T10:06:25.835Z,11.36
2018-04-20T10:08:54.107Z,11.99
2018-04-20T10:11:22.355Z,11.86
2018-04-20T10:13:51.384Z,10.26
2018-04-20T10:16:19.635Z,14.02
2018-04-20T10:18:48.672Z,15.74
2018-04-20T10:21:16.935Z,13.48
2018-04-20T10:23:45.196Z,11.34
2018-04-20T10:26:13.438Z,10.87
2018-04-20T10:28:41.686Z,7.46
2018-04-20T10:31:09.951Z,7.48
2018-04-20T10:33:38.203Z,11.50
2018-04-20T10:36:07.231Z,8.38
2018-04-20T10:38:35.483Z,9.98
2018-04-20T10:41:04.529Z,9.30
2018-04-20T10:43:32.762Z,7.96
2018-04-20T10:46:01.795Z,8.35
2018-04-20T10:48:30.085Z,7.85
2018-04-20T10:50:59.062Z,6.11
2018-04-20T10:53:27.315Z,5.94
2018-04-20T10:55:56.338Z,8.40
2018-04-20T10:58:24.588Z,8.33
2018-04-20T11:00:53.618Z,7.43
2018-04-20T11:03:21.881Z,8.78
2018-04-20T11:05:50.120Z,6.52
2018-04-20T11:08:18.380Z,7.20
2018-04-20T11:10:46.639Z,12.06
2018-04-20T11:13:14.895Z,16.23
2018-04-20T11:15:43.923Z,9.27
2018-04-20T11:18:12.376Z,10.94
2018-04-20T11:20:41.479Z,17.06
2018-04-20T11:23:10.504Z,16.37
2018-04-20T11:25:38.772Z,15.10
2018-04-20T11:28:07.027Z,16.66
2018-04-20T11:30:36.060Z,17.30
2018-04-20T11:33:04.303Z,21.02
2018-04-20T11:35:33.331Z,21.03
2018-04-20T11:38:01.595Z,16.58
2018-04-20T11:40:29.866Z,14.14
2018-04-20T11:43:00.132Z,16.15
2018-04-20T11:45:28.427Z,16.39
2018-04-20T11:47:56.700Z,16.45
2018-04-20T11:50:24.972Z,19.59
2018-04-20T11:52:53.228Z,19.03
2018-04-20T11:55:21.492Z,19.88
2018-04-20T11:57:50.527Z,15.88
2018-04-20T12:00:18.786Z,15.34
2018-04-20T12:02:47.052Z,15.46
2018-04-20T12:05:16.067Z,17.95
2018-04-20T12:07:44.329Z,17.46
2018-04-20T12:10:13.338Z,17.97
2018-04-20T12:12:41.607Z,17.82
2018-04-20T12:15:10.623Z,18.40
2018-04-20T12:17:38.887Z,18.68
2018-04-20T12:20:07.913Z,20.98
2018-04-20T12:22:36.170Z,16.57
2018-04-20T12:25:05.188Z,14.54
2018-04-20T12:27:33.456Z,19.03
2018-04-20T12:30:02.471Z,17.74
2018-04-20T12:32:30.734Z,17.14
2018-04-20T12:34:58.993Z,19.23
2018-04-20T12:37:27.261Z,17.36
2018-04-20T12:39:55.513Z,18.40
2018-04-20T12:42:23.779Z,15.57
2018-04-20T12:44:52.027Z,18.40
2018-04-20T12:47:21.060Z,18.20
2018-04-20T12:49:49.311Z,17.31
2018-04-20T12:52:18.338Z,16.12
2018-04-20T12:54:46.592Z,16.41
2018-04-20T12:57:14.858Z,15.18
2018-04-20T12:59:43.889Z,21.30
2018-04-20T13:02:12.153Z,18.28
2018-04-20T13:04:41.166Z,20.74
2018-04-20T13:07:09.429Z,19.11
2018-04-20T13:09:37.685Z,20.81
2018-04-20T13:12:05.950Z,22.87
2018-04-20T13:14:34.211Z,19.81
2018-04-20T13:17:02.651Z,21.87
2018-04-20T13:19:31.680Z,22.41
2018-04-20T13:21:59.939Z,22.09
2018-04-20T13:24:28.190Z,19.30
2018-04-20T13:26:56.461Z,18.50
2018-04-20T13:29:24.711Z,21.10
2018-04-20T13:31:52.964Z,19.37
2018-04-20T13:34:23.237Z,18.55
2018-04-20T13:36:51.485Z,22.88
2018-04-20T13:39:19.757Z,19.73
2018-04-20T13:41:48.016Z,21.02
2018-04-20T13:44:16.959Z,22.68
2018-04-20T13:46:45.209Z,20.30
2018-04-20T13:49:13.467Z,19.96
2018-04-20T13:51:42.486Z,20.91
2018-04-20T13:54:10.755Z,19.43
2018-04-20T13:56:39.015Z,20.92
2018-04-20T13:59:07.280Z,22.14
2018-04-20T14:01:35.530Z,25.69
2018-04-20T14:04:03.803Z,23.11
2018-04-20T14:06:32.047Z,24.02
2018-04-20T14:09:01.094Z,25.49
2018-04-20T14:11:29.351Z,23.75
2018-04-20T14:13:57.607Z,24.55
2018-04-20T14:16:26.632Z,23.28
2018-04-20T14:18:54.930Z,23.77
2018-04-20T14:21:23.907Z,25.03
2018-04-20T14:23:52.179Z,21.96
2018-04-20T14:26:20.493Z,24.46
2018-04-20T14:28:49.469Z,23.70
2018-04-20T14:31:17.720Z,22.90
2018-04-20T14:33:46.765Z,25.88
2018-04-20T14:36:15.027Z,25.86
2018-04-20T14:38:43.279Z,22.90
2018-04-20T14:41:12.307Z,25.64
2018-04-20T14:43:40.641Z,26.12
2018-04-20T14:46:09.588Z,25.71
2018-04-20T14:48:37.864Z,25.96
2018-04-20T14:51:06.135Z,26.20
2018-04-20T14:53:34.401Z,24.49
2018-04-20T14:56:03.419Z,26.20
2018-04-20T14:58:31.683Z,25.23
2018-04-20T15:01:00.697Z,24.24
2018-04-20T15:03:28.966Z,25.37
2018-04-20T15:05:57.217Z,25.67
2018-04-20T15:08:25.489Z,24.91
2018-04-20T15:10:53.750Z,25.13
2018-04-20T15:13:22.053Z,23.91
2018-04-20T15:15:50.283Z,24.85
2018-04-20T15:18:18.536Z,22.48
2018-04-20T15:20:47.613Z,24.34
2018-04-20T15:23:15.825Z,23.32
2018-04-20T15:25:44.088Z,25.94
2018-04-20T15:28:13.255Z,22.85
2018-04-20T15:30:41.520Z,22.99
2018-04-20T15:33:09.767Z,26.93
2018-04-20T15:35:38.035Z,25.43
2018-04-20T15:38:07.052Z,23.06
2018-04-20T15:40:35.326Z,21.75
2018-04-20T15:43:03.579Z,22.34
2018-04-20T15:45:31.848Z,24.24
2018-04-20T15:48:00.107Z,22.80
2018-04-20T15:50:28.368Z,24.08
2018-04-20T15:52:56.626Z,23.20
2018-04-20T15:55:25.648Z,23.44
2018-04-20T15:57:53.919Z,24.34
2018-04-20T16:00:22.179Z,24.61
2018-04-20T16:02:51.192Z,25.31
2018-04-20T16:05:19.451Z,24.99
2018-04-20T16:07:48.488Z,23.41
2018-04-20T16:10:16.750Z,22.93
2018-04-20T16:12:45.010Z,25.91
2018-04-20T16:15:14.043Z,24.58
2018-04-20T16:17:42.289Z,24.55
2018-04-20T16:20:11.323Z,24.76
2018-04-20T16:22:39.573Z,24.26
2018-04-20T16:25:09.850Z,25.25
2018-04-20T16:27:38.103Z,24.91
2018-04-20T16:30:06.367Z,24.22
2018-04-20T16:32:34.615Z,24.99
2018-04-20T16:35:02.914Z,24.47
2018-04-20T16:37:31.924Z,24.54
2018-04-20T16:40:00.948Z,25.07
2018-04-20T16:42:29.303Z,25.16
2018-04-20T16:44:58.323Z,25.78
2018-04-20T16:47:26.570Z,28.65
2018-04-20T16:49:55.600Z,25.54
2018-04-20T16:52:23.856Z,25.95
2018-04-20T16:54:52.127Z,27.90
2018-04-20T16:57:21.140Z,27.27
2018-04-20T16:59:49.395Z,26.16
2018-04-20T17:02:18.411Z,27.75
2018-04-20T17:04:47.439Z,26.39
2018-04-20T17:07:15.714Z,28.21
2018-04-20T17:09:43.975Z,25.78
2018-04-20T17:12:12.234Z,26.49
2018-04-20T17:14:40.499Z,26.82
2018-04-20T17:17:08.747Z,27.52
2018-04-20T17:19:37.019Z,27.30
2018-04-20T17:22:06.041Z,29.02
2018-04-20T17:24:34.285Z,29.73
2018-04-20T17:27:02.555Z,29.03
2018-04-20T17:29:30.810Z,28.63
2018-04-20T17:31:59.843Z,29.54
2018-04-20T17:34:28.099Z,33.11
2018-04-20T17:36:57.181Z,33.39
2018-04-20T17:39:26.202Z,34.46
2018-04-20T17:41:55.227Z,36.69
2018-04-20T17:44:23.482Z,36.84
2018-04-20T17:46:52.523Z,37.89
2018-04-20T17:49:20.787Z,37.89
2018-04-20T17:51:49.034Z,40.79
2018-04-20T17:54:18.074Z,40.10
2018-04-20T17:56:46.344Z,41.54
2018-04-20T17:59:14.604Z,40.97
2018-04-20T18:01:42.880Z,39.83
2018-04-20T18:04:11.909Z,46.41
2018-04-20T18:06:40.185Z,45.26
2018-04-20T18:09:08.439Z,46.12
2018-04-20T18:11:36.702Z,47.84
2018-04-20T18:14:05.715Z,44.73
2018-04-20T18:16:34.835Z,48.00
2018-04-20T18:19:03.099Z,47.96
2018-04-20T18:21:32.123Z,48.17
2018-04-20T18:24:00.388Z,51.03
2018-04-20T18:26:28.653Z,51.13
2018-04-20T18:28:59.056Z,51.99
2018-04-20T18:31:27.315Z,53.06
2018-04-20T18:33:55.593Z,52.15
2018-04-20T18:36:23.931Z,53.82
2018-04-20T18:38:52.215Z,53.09
2018-04-20T18:41:20.458Z,56.72
2018-04-20T18:43:48.713Z,57.94
2018-04-20T18:46:16.979Z,59.74
2018-04-20T18:48:45.246Z,54.46
2018-04-20T18:51:13.872Z,53.45
2018-04-20T18:53:42.123Z,57.30
2018-04-20T18:56:10.399Z,59.28
2018-04-20T18:58:38.658Z,61.14
2018-04-20T19:01:07.675Z,60.63
2018-04-20T19:03:35.928Z,61.48
2018-04-20T19:06:04.961Z,65.56
2018-04-20T19:08:33.215Z,58.49
2018-04-20T19:11:02.352Z,62.52
2018-04-20T19:13:30.599Z,62.54
2018-04-20T19:15:58.862Z,63.42
2018-04-20T19:18:29.139Z,62.35
2018-04-20T19:20:58.224Z,61.94
2018-04-20T19:23:26.485Z,62.50
2018-04-20T19:25:54.876Z,61.78
2018-04-20T19:28:23.147Z,59.95
2018-04-20T19:30:52.159Z,59.26
2018-04-20T19:33:20.425Z,58.89
2018-04-20T19:35:48.680Z,60.63
2018-04-20T19:38:16.938Z,61.66
2018-04-20T19:40:45.200Z,60.75
2018-04-20T19:43:13.456Z,63.52
2018-04-20T19:45:41.706Z,64.70
2018-04-20T19:48:09.968Z,65.41
2018-04-20T19:50:38.220Z,63.62
2018-04-20T19:53:06.483Z,63.69
2018-04-20T19:55:34.744Z,64.57
2018-04-20T19:58:03.767Z,66.93
2018-04-20T20:00:32.020Z,68.24
2018-04-20T20:03:01.039Z,67.60
2018-04-20T20:05:29.303Z,68.77
2018-04-20T20:07:57.591Z,69.78
2018-04-20T20:10:27.295Z,68.88
2018-04-20T20:12:56.411Z,69.01
2018-04-20T20:15:24.704Z,69.67
2018-04-20T20:17:53.208Z,70.73
2018-04-20T20:20:21.504Z,69.01
2018-04-20T20:22:49.763Z,69.00
2018-04-20T20:25:18.008Z,70.30
2018-04-20T20:27:46.284Z,70.80
2018-04-20T20:30:15.328Z,69.91
2018-04-20T20:32:43.583Z,72.04
2018-04-20T20:35:11.838Z,71.64
2018-04-20T20:37:40.884Z,71.82
2018-04-20T20:40:09.135Z,72.94
2018-04-20T20:42:38.423Z,72.42
2018-04-20T20:45:07.438Z,73.21
2018-04-20T20:47:35.699Z,74.32
2018-04-20T20:50:04.714Z,72.90
2018-04-20T20:52:32.979Z,70.45
2018-04-20T20:55:01.238Z,72.27
2018-04-20T20:57:29.495Z,71.60
2018-04-20T20:59:57.755Z,71.50
2018-04-20T21:02:26.020Z,74.06
2018-04-20T21:04:54.282Z,74.50
2018-04-20T21:07:23.313Z,74.95
2018-04-20T21:09:51.568Z,74.85
2018-04-20T21:12:19.830Z,75.01
2018-04-20T21:14:48.842Z,72.42
2018-04-20T21:17:17.115Z,73.39
2018-04-20T21:19:46.138Z,73.57
2018-04-20T21:22:14.395Z,76.41
2018-04-20T21:24:44.656Z,75.16
2018-04-20T21:27:12.929Z,76.16
2018-04-20T21:29:41.187Z,77.78
2018-04-20T21:32:09.454Z,77.87
2018-04-20T21:34:38.481Z,77.61
2018-04-20T21:37:06.745Z,76.71
2018-04-20T21:39:34.995Z,76.30
2018-04-20T21:42:03.267Z,76.47
2018-04-20T21:44:31.532Z,77.54
2018-04-20T21:46:59.803Z,77.91
2018-04-20T21:49:28.059Z,77.83
2018-04-20T21:51:56.343Z,78.23
2018-04-20T21:54:24.584Z,77.68
2018-04-20T21:56:52.850Z,76.25
2018-04-20T21:59:21.111Z,76.67
2018-04-20T22:01:49.366Z,79.02
2018-04-20T22:04:17.640Z,78.94
2018-04-20T22:06:45.899Z,78.57
2018-04-20T22:09:14.935Z,79.58
2018-04-20T22:11:43.200Z,78.71
2018-04-20T22:14:11.468Z,79.89
2018-04-20T22:16:40.487Z,80.06
2018-04-20T22:19:08.762Z,80.23
2018-04-20T22:21:37.033Z,80.20
2018-04-20T22:24:05.302Z,81.12
2018-04-20T22:26:35.559Z,79.83
2018-04-20T22:29:03.821Z,80.93
2018-04-20T22:31:32.080Z,81.74
2018-04-20T22:34:01.130Z,81.26
2018-04-20T22:36:29.379Z,82.07
2018-04-20T22:38:57.639Z,80.41
2018-04-20T22:41:26.673Z,81.47
2018-04-20T22:43:54.940Z,81.71
2018-04-20T22:46:23.207Z,82.34
2018-04-20T22:48:52.235Z,81.40
2018-04-20T22:51:20.501Z,81.80
2018-04-20T22:53:48.780Z,81.61
2018-04-20T22:56:17.032Z,81.82
2018-04-20T22:58:46.060Z,81.07
2018-04-20T23:01:14.308Z,80.96
2018-04-20T23:03:43.348Z,82.17
2018-04-20T23:06:11.588Z,82.22
2018-04-20T23:08:40.823Z,81.59
2018-04-20T23:11:09.074Z,81.87
2018-04-20T23:13:38.097Z,82.50
2018-04-20T23:16:06.369Z,82.67
2018-04-20T23:18:34.622Z,83.52
2018-04-20T23:21:02.878Z,83.75
2018-04-20T23:23:31.136Z,84.43
2018-04-20T23:25:59.388Z,84.18
2018-04-20T23:28:28.408Z,83.84
2018-04-20T23:30:56.654Z,83.59
2018-04-20T23:33:25.683Z,84.12
2018-04-20T23:35:53.934Z,84.74
2018-04-20T23:38:22.968Z,84.27
2018-04-20T23:40:51.210Z,83.28
2018-04-20T23:43:20.238Z,84.11
2018-04-20T23:45:48.488Z,84.69
2018-04-20T23:48:17.505Z,84.09
2018-04-20T23:50:45.747Z,83.79
2018-04-20T23:53:13.995Z,83.62
2018-04-20T23:55:42.253Z,84.16
2018-04-20T23:58:10.507Z,83.68
